createdAt,value
2018-12-06T00:00:33.937Z,14.90
2018-12-06T00:03:01.484Z,13.70
2018-12-06T00:05:29.043Z,10.33
2018-12-06T00:08:08.435Z,8.83
2018-12-06T00:10:36.012Z,10.03
2018-12-06T00:13:03.741Z,7.83
2018-12-06T00:15:32.122Z,9.40
2018-12-06T00:17:59.684Z,8.70
2018-12-06T00:20:27.199Z,7.77
2018-12-06T00:22:54.742Z,7.47
2018-12-06T00:25:22.278Z,6.53
2018-12-06T00:27:49.846Z,5.90
2018-12-06T00:30:29.085Z,9.33
2018-12-06T00:32:56.634Z,7.23
2018-12-06T00:35:24.208Z,8.83
2018-12-06T00:37:51.805Z,8.57
2018-12-06T00:40:19.346Z,9.30
2018-12-06T00:42:48.510Z,10.77
2018-12-06T00:45:16.668Z,8.43
2018-12-06T00:47:44.298Z,9.23
2018-12-06T00:50:11.832Z,7.83
2018-12-06T00:52:39.642Z,9.50
2018-12-06T00:55:07.448Z,6.20
2018-12-06T00:57:35.020Z,6.90
2018-12-06T01:00:04.517Z,7.03
2018-12-06T01:02:32.199Z,7.57
2018-12-06T01:04:59.786Z,8.77
2018-12-06T01:07:27.521Z,7.17
2018-12-06T01:09:55.080Z,6.40
2018-12-06T01:12:22.995Z,9.80
2018-12-06T01:14:50.528Z,10.17
2018-12-06T01:17:18.087Z,6.90
2018-12-06T01:19:46.038Z,6.70
2018-12-06T01:22:13.702Z,7.40
2018-12-06T01:24:41.326Z,7.53
2018-12-06T01:27:09.044Z,8.57
2018-12-06T01:29:36.601Z,7.50
2018-12-06T01:32:04.150Z,7.90
2018-12-06T01:34:31.775Z,10.83
2018-12-06T01:36:59.319Z,8.70
2018-12-06T01:39:26.848Z,7.57
2018-12-06T01:41:54.611Z,10.50
2018-12-06T01:44:22.173Z,7.63
2018-12-06T01:46:50.221Z,9.80
2018-12-06T01:49:17.828Z,9.97
2018-12-06T01:51:45.362Z,10.80
2018-12-06T01:54:12.967Z,10.17
2018-12-06T01:56:40.668Z,10.27
2018-12-06T01:59:08.290Z,9.87
2018-12-06T02:01:35.852Z,10.70
2018-12-06T02:04:03.581Z,9.67
2018-12-06T02:06:31.209Z,13.43
2018-12-06T02:08:58.735Z,9.50
2018-12-06T02:11:26.283Z,11.73
2018-12-06T02:13:53.917Z,10.17
2018-12-06T02:16:21.477Z,9.13
2018-12-06T02:18:49.030Z,8.60
2018-12-06T02:21:16.552Z,8.17
2018-12-06T02:23:44.179Z,8.80
2018-12-06T02:26:11.751Z,8.77
2018-12-06T02:28:39.342Z,8.33
2018-12-06T02:31:06.942Z,9.07
2018-12-06T02:33:35.223Z,8.30
2018-12-06T02:36:02.774Z,9.40
2018-12-06T02:38:30.299Z,9.53
2018-12-06T02:40:58.082Z,10.90
2018-12-06T02:43:25.635Z,7.37
2018-12-06T02:45:53.202Z,7.77
2018-12-06T02:48:20.967Z,7.87
2018-12-06T02:50:48.490Z,9.30
2018-12-06T02:53:16.086Z,8.30
2018-12-06T02:55:43.672Z,8.07
2018-12-06T02:58:11.229Z,8.60
2018-12-06T03:00:38.785Z,8.40
2018-12-06T03:03:06.325Z,9.60
2018-12-06T03:05:33.885Z,8.13
2018-12-06T03:08:02.372Z,8.90
2018-12-06T03:10:29.930Z,7.07
2018-12-06T03:12:57.690Z,8.30
2018-12-06T03:15:25.488Z,8.40
2018-12-06T03:17:53.048Z,11.83
2018-12-06T03:20:20.622Z,9.47
2018-12-06T03:22:48.356Z,12.20
2018-12-06T03:25:15.907Z,10.73
2018-12-06T03:27:43.454Z,9.50
2018-12-06T03:30:10.978Z,9.87
2018-12-06T03:32:38.562Z,8.30
2018-12-06T03:35:06.567Z,8.10
2018-12-06T03:37:34.125Z,8.93
2018-12-06T03:40:01.680Z,7.80
2018-12-06T03:42:34.468Z,9.17
2018-12-06T03:45:02.052Z,7.93
2018-12-06T03:47:29.687Z,8.57
2018-12-06T03:49:57.269Z,12.00
2018-12-06T03:52:24.790Z,9.17
2018-12-06T03:54:52.372Z,9.07
2018-12-06T03:57:19.953Z,10.20
2018-12-06T03:59:47.563Z,10.93
2018-12-06T04:02:15.338Z,8.37
2018-12-06T04:04:42.849Z,11.60
2018-12-06T04:07:10.412Z,7.40
2018-12-06T04:09:37.949Z,8.93
2018-12-06T04:12:05.533Z,8.50
2018-12-06T04:14:33.331Z,8.63
2018-12-06T04:17:00.946Z,8.23
2018-12-06T04:19:28.467Z,8.17
2018-12-06T04:21:56.025Z,8.13
2018-12-06T04:24:23.973Z,8.73
2018-12-06T04:26:51.497Z,11.07
2018-12-06T04:29:19.070Z,8.87
2018-12-06T04:31:46.608Z,9.20
2018-12-06T04:34:14.193Z,8.50
2018-12-06T04:36:41.716Z,8.77
2018-12-06T04:39:09.329Z,8.77
2018-12-06T04:41:36.885Z,11.07
2018-12-06T04:44:04.581Z,9.20
2018-12-06T04:46:32.141Z,11.20
2018-12-06T04:48:59.735Z,10.20
2018-12-06T04:51:27.397Z,9.50
2018-12-06T04:53:55.005Z,14.03
2018-12-06T04:56:23.597Z,11.50
2018-12-06T04:58:51.940Z,10.47
2018-12-06T05:01:19.846Z,12.83
2018-12-06T05:03:47.464Z,10.27
2018-12-06T05:06:15.118Z,10.90
2018-12-06T05:08:42.647Z,9.37
2018-12-06T05:11:10.360Z,9.37
2018-12-06T05:13:38.071Z,10.43
2018-12-06T05:16:05.683Z,8.40
2018-12-06T05:18:33.340Z,10.10
2018-12-06T05:21:00.933Z,9.77
2018-12-06T05:23:28.526Z,10.33
2018-12-06T05:25:56.242Z,9.80
2018-12-06T05:28:23.789Z,11.67
2018-12-06T05:30:51.368Z,8.87
2018-12-06T05:33:18.939Z,20.87
2018-12-06T05:35:46.478Z,13.57
2018-12-06T05:38:14.219Z,11.43
2018-12-06T05:40:41.820Z,9.50
2018-12-06T05:43:14.631Z,11.17
2018-12-06T05:45:44.195Z,8.53
2018-12-06T05:48:11.750Z,10.40
2018-12-06T05:50:39.586Z,9.93
2018-12-06T05:53:07.375Z,13.03
2018-12-06T05:55:34.890Z,10.53
2018-12-06T05:58:02.711Z,9.20
2018-12-06T06:00:30.394Z,10.47
2018-12-06T06:02:58.247Z,10.37
2018-12-06T06:05:25.819Z,10.27
2018-12-06T06:07:53.366Z,9.97
2018-12-06T06:10:20.930Z,8.50
2018-12-06T06:12:48.735Z,8.37
2018-12-06T06:15:16.895Z,10.37
2018-12-06T06:17:44.431Z,9.00
2018-12-06T06:20:12.131Z,8.93
2018-12-06T06:22:39.700Z,9.27
2018-12-06T06:25:07.332Z,10.23
2018-12-06T06:27:35.087Z,13.23
2018-12-06T06:30:02.842Z,12.93
2018-12-06T06:32:30.456Z,10.07
2018-12-06T06:34:58.040Z,10.80
2018-12-06T06:37:26.136Z,15.87
2018-12-06T06:39:54.553Z,10.67
2018-12-06T06:42:22.900Z,10.97
2018-12-06T06:44:50.712Z,9.93
2018-12-06T06:47:19.074Z,13.07
2018-12-06T06:49:46.886Z,12.77
2018-12-06T06:52:14.588Z,12.73
2018-12-06T06:54:42.129Z,11.93
2018-12-06T06:57:09.923Z,10.23
2018-12-06T06:59:37.501Z,10.80
2018-12-06T07:02:05.635Z,12.00
2018-12-06T07:04:33.313Z,14.00
2018-12-06T07:07:00.858Z,10.37
2018-12-06T07:09:28.500Z,14.80
2018-12-06T07:11:56.024Z,10.40
2018-12-06T07:14:23.719Z,11.37
2018-12-06T07:16:51.503Z,10.50
2018-12-06T07:19:19.050Z,12.40
2018-12-06T07:21:46.806Z,11.47
2018-12-06T07:24:14.541Z,11.00
2018-12-06T07:26:42.236Z,11.50
2018-12-06T07:29:10.578Z,12.37
2018-12-06T07:31:38.496Z,10.93
2018-12-06T07:34:06.389Z,12.37
2018-12-06T07:36:34.964Z,13.70
2018-12-06T07:39:02.766Z,8.90
2018-12-06T07:41:30.321Z,9.53
2018-12-06T07:43:58.739Z,10.40
2018-12-06T07:46:26.504Z,10.67
2018-12-06T07:48:54.206Z,11.90
2018-12-06T07:51:22.552Z,8.87
2018-12-06T07:53:50.736Z,10.67
2018-12-06T07:56:18.431Z,12.10
2018-12-06T07:58:45.982Z,12.23
2018-12-06T08:01:13.586Z,12.30
2018-12-06T08:03:41.957Z,14.80
2018-12-06T08:06:09.537Z,16.53
2018-12-06T08:08:37.427Z,13.60
2018-12-06T08:11:05.201Z,15.40
2018-12-06T08:13:33.571Z,16.47
2018-12-06T08:16:01.313Z,15.50
2018-12-06T08:18:28.871Z,13.93
2018-12-06T08:20:56.408Z,15.03
2018-12-06T08:23:24.333Z,13.53
2018-12-06T08:25:52.319Z,13.77
2018-12-06T08:28:20.848Z,15.50
2018-12-06T08:30:48.421Z,12.60
2018-12-06T08:33:16.002Z,12.10
2018-12-06T08:35:43.633Z,10.27
2018-12-06T08:38:12.333Z,11.87
2018-12-06T08:40:40.858Z,12.57
2018-12-06T08:43:08.494Z,12.63
2018-12-06T08:45:36.155Z,10.47
2018-12-06T08:48:03.897Z,10.67
2018-12-06T08:50:31.460Z,13.53
2018-12-06T08:52:59.146Z,27.00
2018-12-06T08:55:26.780Z,33.57
2018-12-06T08:57:55.304Z,51.10
2018-12-06T09:00:23.553Z,58.17
2018-12-06T09:02:51.202Z,34.47
2018-12-06T09:05:19.619Z,27.73
2018-12-06T09:07:47.379Z,29.63
2018-12-06T09:10:14.938Z,24.03
2018-12-06T09:12:42.981Z,26.77
2018-12-06T09:15:10.758Z,18.50
2018-12-06T09:17:38.302Z,22.27
2018-12-06T09:20:06.027Z,14.70
2018-12-06T09:22:33.609Z,13.00
2018-12-06T09:25:01.465Z,14.43
2018-12-06T09:27:29.782Z,12.53
2018-12-06T09:29:57.336Z,11.43
2018-12-06T09:32:25.008Z,11.87
2018-12-06T09:34:53.387Z,12.20
2018-12-06T09:37:21.070Z,11.33
2018-12-06T09:39:55.827Z,10.40
2018-12-06T09:42:23.543Z,10.70
2018-12-06T09:44:51.066Z,10.67
2018-12-06T09:47:19.587Z,11.73
2018-12-06T09:49:47.355Z,9.93
2018-12-06T09:52:15.116Z,11.80
2018-12-06T09:54:43.196Z,11.47
2018-12-06T09:57:10.977Z,12.40
2018-12-06T09:59:38.507Z,10.77
2018-12-06T10:02:06.139Z,12.33
2018-12-06T10:04:33.699Z,11.20
2018-12-06T10:07:01.234Z,10.30
2018-12-06T10:09:29.021Z,10.47
2018-12-06T10:11:56.616Z,9.27
2018-12-06T10:14:24.179Z,9.83
2018-12-06T10:16:52.588Z,9.90
2018-12-06T10:19:20.327Z,12.23
2018-12-06T10:21:47.989Z,11.13
2018-12-06T10:24:16.445Z,13.23
2018-12-06T10:26:44.160Z,11.57
2018-12-06T10:29:13.509Z,8.63
2018-12-06T10:31:41.025Z,9.00
2018-12-06T10:34:08.640Z,10.83
2018-12-06T10:36:36.276Z,10.17
2018-12-06T10:39:06.452Z,12.60
2018-12-06T10:41:34.755Z,11.47
2018-12-06T10:44:02.441Z,10.30
2018-12-06T10:46:30.015Z,12.30
2018-12-06T10:48:57.565Z,10.43
2018-12-06T10:51:42.601Z,12.27
2018-12-06T10:54:10.465Z,11.07
2018-12-06T10:56:38.219Z,12.63
2018-12-06T10:59:06.061Z,8.73
2018-12-06T11:01:39.537Z,11.20
2018-12-06T11:04:07.428Z,9.90
2018-12-06T11:06:35.501Z,10.63
2018-12-06T11:09:04.753Z,9.10
2018-12-06T11:11:32.273Z,11.43
2018-12-06T11:13:59.829Z,10.43
2018-12-06T11:16:28.039Z,9.97
2018-12-06T11:18:55.898Z,10.57
2018-12-06T11:21:24.112Z,8.50
2018-12-06T11:23:51.665Z,10.20
2018-12-06T11:26:19.186Z,11.70
2018-12-06T11:28:46.734Z,12.70
2018-12-06T11:31:14.245Z,9.57
2018-12-06T11:33:42.038Z,9.50
2018-12-06T11:36:09.861Z,8.83
2018-12-06T11:38:37.549Z,9.67
2018-12-06T11:41:05.430Z,8.83
2018-12-06T11:43:33.127Z,9.83
2018-12-06T11:46:00.712Z,8.90
2018-12-06T11:48:28.229Z,7.73
2018-12-06T11:50:56.575Z,9.23
2018-12-06T11:53:24.870Z,9.40
2018-12-06T11:55:53.447Z,11.07
2018-12-06T11:58:21.110Z,9.37
2018-12-06T12:00:49.386Z,9.23
2018-12-06T12:03:16.907Z,11.37
2018-12-06T12:05:45.758Z,9.33
2018-12-06T12:08:13.595Z,9.97
2018-12-06T12:10:41.817Z,12.43
2018-12-06T12:13:09.366Z,11.17
2018-12-06T12:15:36.994Z,19.43
2018-12-06T12:18:04.551Z,21.70
2018-12-06T12:20:32.381Z,12.60
2018-12-06T12:23:00.637Z,11.40
2018-12-06T12:25:28.303Z,14.23
2018-12-06T12:27:56.028Z,16.93
2018-12-06T12:30:23.579Z,12.80
2018-12-06T12:32:51.248Z,11.33
2018-12-06T12:35:18.964Z,10.07
2018-12-06T12:37:46.907Z,9.57
2018-12-06T12:40:14.443Z,9.90
2018-12-06T12:42:42.141Z,13.50
2018-12-06T12:45:09.902Z,7.80
2018-12-06T12:47:37.532Z,8.47
2018-12-06T12:50:06.553Z,8.93
2018-12-06T12:52:34.967Z,9.37
2018-12-06T12:55:02.488Z,11.53
2018-12-06T12:57:30.491Z,8.67
2018-12-06T12:59:58.091Z,9.10
2018-12-06T13:02:25.640Z,7.77
2018-12-06T13:04:53.418Z,8.70
2018-12-06T13:07:20.976Z,9.23
2018-12-06T13:09:48.951Z,9.23
2018-12-06T13:12:16.482Z,7.67
2018-12-06T13:14:44.109Z,10.67
2018-12-06T13:17:12.096Z,8.73
2018-12-06T13:19:39.724Z,10.50
2018-12-06T13:22:07.251Z,8.67
2018-12-06T13:24:35.082Z,10.87
2018-12-06T13:27:02.735Z,8.33
2018-12-06T13:29:30.382Z,8.77
2018-12-06T13:31:57.942Z,7.60
2018-12-06T13:34:25.755Z,8.13
2018-12-06T13:36:53.538Z,7.87
2018-12-06T13:39:21.407Z,9.20
2018-12-06T13:41:48.969Z,10.23
2018-12-06T13:44:16.582Z,7.10
2018-12-06T13:46:44.140Z,7.40
2018-12-06T13:49:11.807Z,8.43
2018-12-06T13:51:39.374Z,9.27
2018-12-06T13:54:06.946Z,7.80
2018-12-06T13:56:34.476Z,7.80
2018-12-06T13:59:02.101Z,8.00
2018-12-06T14:01:29.767Z,7.60
2018-12-06T14:03:57.594Z,9.03
2018-12-06T14:06:25.218Z,9.53
2018-12-06T14:08:54.621Z,11.20
2018-12-06T14:11:22.392Z,7.97
2018-12-06T14:13:49.917Z,10.27
2018-12-06T14:16:17.996Z,14.73
2018-12-06T14:18:45.658Z,13.20
2018-12-06T14:21:13.640Z,9.60
2018-12-06T14:23:41.939Z,12.63
2018-12-06T14:26:11.180Z,14.33
2018-12-06T14:28:39.311Z,9.10
2018-12-06T14:31:06.941Z,9.37
2018-12-06T14:33:34.869Z,10.50
2018-12-06T14:36:02.548Z,11.53
2018-12-06T14:38:30.094Z,13.60
2018-12-06T14:40:58.030Z,12.03
2018-12-06T14:43:27.635Z,16.07
2018-12-06T14:45:55.631Z,12.70
2018-12-06T14:48:23.495Z,13.33
2018-12-06T14:50:51.617Z,13.20
2018-12-06T14:53:19.384Z,11.63
2018-12-06T14:55:46.981Z,16.20
2018-12-06T14:58:14.562Z,13.60
2018-12-06T15:00:42.113Z,12.50
2018-12-06T15:03:09.756Z,30.47
2018-12-06T15:05:39.420Z,42.03
2018-12-06T15:08:06.978Z,49.17
2018-12-06T15:10:34.591Z,51.13
2018-12-06T15:13:02.226Z,45.57
2018-12-06T15:15:29.802Z,41.70
2018-12-06T15:17:57.523Z,28.07
2018-12-06T15:20:25.193Z,18.00
2018-12-06T15:22:53.453Z,20.30
2018-12-06T15:25:21.429Z,16.47
2018-12-06T15:28:36.624Z,10.70
2018-12-06T15:31:05.610Z,9.60
2018-12-06T15:33:33.306Z,9.17
2018-12-06T15:36:01.038Z,8.90
2018-12-06T15:38:30.290Z,9.60
2018-12-06T15:40:58.324Z,10.60
2018-12-06T15:43:26.093Z,10.30
2018-12-06T15:45:53.713Z,9.60
2018-12-06T15:48:21.493Z,9.33
2018-12-06T15:50:50.413Z,9.03
2018-12-06T15:53:18.453Z,9.50
2018-12-06T15:55:46.073Z,8.43
2018-12-06T15:58:13.911Z,11.83
2018-12-06T16:00:41.731Z,11.57
2018-12-06T16:03:10.088Z,12.40
2018-12-06T16:05:38.947Z,14.77
2018-12-06T16:08:06.541Z,13.70
2018-12-06T16:10:40.143Z,16.53
2018-12-06T16:13:07.666Z,16.37
2018-12-06T16:15:35.318Z,17.97
2018-12-06T16:18:02.914Z,27.97
2018-12-06T16:20:30.591Z,16.27
2018-12-06T16:22:58.259Z,15.00
2018-12-06T16:25:25.806Z,11.13
2018-12-06T16:27:53.374Z,13.40
2018-12-06T16:30:21.188Z,17.00
2018-12-06T16:32:48.737Z,12.47
2018-12-06T16:35:16.311Z,15.70
2018-12-06T16:37:43.847Z,13.30
2018-12-06T16:40:11.510Z,15.93
2018-12-06T16:42:39.377Z,18.00
2018-12-06T16:45:07.187Z,15.33
2018-12-06T16:47:34.984Z,14.00
2018-12-06T16:50:03.383Z,14.20
2018-12-06T16:52:30.901Z,17.60
2018-12-06T16:54:58.477Z,16.70
2018-12-06T16:57:26.466Z,20.43
2018-12-06T16:59:54.927Z,23.00
2018-12-06T17:02:22.490Z,21.03
2018-12-06T17:04:50.103Z,19.67
2018-12-06T17:07:17.676Z,17.43
2018-12-06T17:09:45.235Z,19.77
2018-12-06T17:12:12.836Z,20.77
2018-12-06T17:14:40.580Z,18.53
2018-12-06T17:17:08.151Z,21.77
2018-12-06T17:19:35.742Z,25.47
2018-12-06T17:22:03.630Z,21.87
2018-12-06T17:24:31.206Z,22.03
2018-12-06T17:26:58.759Z,26.03
2018-12-06T17:29:26.596Z,22.57
2018-12-06T17:31:54.367Z,24.10
2018-12-06T17:34:21.897Z,19.43
2018-12-06T17:36:50.803Z,16.97
2018-12-06T17:39:19.517Z,17.93
2018-12-06T17:41:47.110Z,30.30
2018-12-06T17:44:14.682Z,31.00
2018-12-06T17:46:42.274Z,22.17
2018-12-06T17:49:10.508Z,33.63
2018-12-06T17:51:38.052Z,35.90
2018-12-06T17:54:05.629Z,30.57
2018-12-06T17:56:34.132Z,31.30
2018-12-06T17:59:02.032Z,36.73
2018-12-06T18:01:29.558Z,24.20
2018-12-06T18:03:57.124Z,24.43
2018-12-06T18:06:24.713Z,27.93
2018-12-06T18:08:52.302Z,26.73
2018-12-06T18:11:20.437Z,28.03
2018-12-06T18:13:48.212Z,28.07
2018-12-06T18:16:19.510Z,31.00
2018-12-06T18:18:45.452Z,31.10
2018-12-06T18:21:13.012Z,34.20
2018-12-06T18:23:40.575Z,29.53
2018-12-06T18:26:08.155Z,36.40
2018-12-06T18:28:36.018Z,36.47
2018-12-06T18:31:03.894Z,38.63
2018-12-06T18:33:31.549Z,33.00
2018-12-06T18:35:59.125Z,30.17
2018-12-06T18:38:26.941Z,25.03
2018-12-06T18:40:54.504Z,29.73
2018-12-06T18:43:22.327Z,26.73
2018-12-06T18:45:49.850Z,25.73
2018-12-06T18:48:17.437Z,27.10
2018-12-06T18:50:46.524Z,21.83
2018-12-06T18:53:14.087Z,23.90
2018-12-06T18:55:41.661Z,21.30
2018-12-06T18:58:09.317Z,20.50
2018-12-06T19:00:42.198Z,16.27
2018-12-06T19:03:09.950Z,24.97
2018-12-06T19:05:37.711Z,20.90
2018-12-06T19:08:05.285Z,20.53
2018-12-06T19:10:33.422Z,23.03
2018-12-06T19:13:01.137Z,23.03
2018-12-06T19:15:28.702Z,22.73
2018-12-06T19:17:56.344Z,19.93
2018-12-06T19:20:23.996Z,23.10
2018-12-06T19:22:51.707Z,21.93
2018-12-06T19:25:19.286Z,22.63
2018-12-06T19:27:48.211Z,24.67
2018-12-06T19:30:15.991Z,23.60
2018-12-06T19:32:44.313Z,26.30
2018-12-06T19:35:13.318Z,23.60
2018-12-06T19:37:41.448Z,22.17
2018-12-06T19:40:09.188Z,25.77
2018-12-06T19:42:38.935Z,27.00
2018-12-06T19:45:06.894Z,36.10
2018-12-06T19:47:34.556Z,28.67
2018-12-06T19:50:02.183Z,26.17
2018-12-06T19:52:30.537Z,21.47
2018-12-06T19:54:58.240Z,19.67
2018-12-06T19:57:25.854Z,21.83
2018-12-06T19:59:53.427Z,19.33
2018-12-06T20:02:20.985Z,20.60
2018-12-06T20:04:48.610Z,16.90
2018-12-06T20:07:16.547Z,20.03
2018-12-06T20:09:44.544Z,17.40
2018-12-06T20:12:12.737Z,18.67
2018-12-06T20:14:40.666Z,23.93
2018-12-06T20:17:08.324Z,32.13
2018-12-06T20:19:36.330Z,21.00
2018-12-06T20:22:05.002Z,24.13
2018-12-06T20:24:32.950Z,22.53
2018-12-06T20:27:00.523Z,21.10
2018-12-06T20:29:28.073Z,20.30
2018-12-06T20:31:55.733Z,17.50
2018-12-06T20:34:23.319Z,21.77
2018-12-06T20:36:50.863Z,25.13
2018-12-06T20:39:18.857Z,21.33
2018-12-06T20:41:46.666Z,24.10
2018-12-06T20:44:15.007Z,24.30
2018-12-06T20:46:42.597Z,25.97
2018-12-06T20:49:10.596Z,29.70
2018-12-06T20:51:38.222Z,25.83
2018-12-06T20:54:06.692Z,21.80
2018-12-06T20:56:34.270Z,24.80
2018-12-06T20:59:02.072Z,25.40
2018-12-06T21:01:29.811Z,23.03
2018-12-06T21:03:58.164Z,24.33
2018-12-06T21:06:26.600Z,22.53
2018-12-06T21:08:54.227Z,21.10
2018-12-06T21:11:22.244Z,18.13
2018-12-06T21:13:49.803Z,23.97
2018-12-06T21:16:17.734Z,24.20
2018-12-06T21:18:45.314Z,21.57
2018-12-06T21:21:12.868Z,22.97
2018-12-06T21:23:40.431Z,23.30
2018-12-06T21:26:08.247Z,18.57
2018-12-06T21:28:35.865Z,23.87
2018-12-06T21:31:08.662Z,20.20
2018-12-06T21:33:36.221Z,22.23
2018-12-06T21:36:04.022Z,21.90
2018-12-06T21:38:31.612Z,19.50
2018-12-06T21:40:59.132Z,22.87
2018-12-06T21:43:26.692Z,18.77
2018-12-06T21:45:54.241Z,17.13
2018-12-06T21:48:22.654Z,13.63
2018-12-06T21:50:50.197Z,14.20
2018-12-06T21:53:17.780Z,15.13
2018-12-06T21:55:45.525Z,11.90
2018-12-06T21:58:13.089Z,12.00
2018-12-06T22:00:40.608Z,14.60
2018-12-06T22:03:08.172Z,15.53
2018-12-06T22:05:35.695Z,16.70
2018-12-06T22:08:03.293Z,15.53
2018-12-06T22:10:30.836Z,9.90
2018-12-06T22:12:58.938Z,8.83
2018-12-06T22:15:26.580Z,6.37
2018-12-06T22:17:54.115Z,12.03
2018-12-06T22:20:22.373Z,10.67
2018-12-06T22:22:50.906Z,15.20
2018-12-06T22:25:18.471Z,13.93
2018-12-06T22:27:46.894Z,13.37
2018-12-06T22:30:14.926Z,13.57
2018-12-06T22:32:42.583Z,13.43
2018-12-06T22:35:10.303Z,16.00
2018-12-06T22:37:38.487Z,19.07
2018-12-06T22:40:07.037Z,16.90
2018-12-06T22:42:35.057Z,22.30
2018-12-06T22:48:00.736Z,31.47
2018-12-06T22:50:28.313Z,31.17
2018-12-06T22:52:55.885Z,22.00
2018-12-06T22:55:23.445Z,28.43
2018-12-06T22:57:51.232Z,25.47
2018-12-06T23:00:21.124Z,23.60
2018-12-06T23:02:48.894Z,27.77
2018-12-06T23:05:16.455Z,25.57
2018-12-06T23:07:44.019Z,22.73
2018-12-06T23:10:12.478Z,15.90
2018-12-06T23:12:40.031Z,9.40
2018-12-06T23:15:08.022Z,10.50
2018-12-06T23:17:35.611Z,7.53
2018-12-06T23:20:04.422Z,11.07
2018-12-06T23:22:32.175Z,9.60
2018-12-06T23:24:59.736Z,9.50
2018-12-06T23:27:27.299Z,9.10
2018-12-06T23:29:54.833Z,6.90
2018-12-06T23:32:22.687Z,5.47
2018-12-06T23:34:50.237Z,4.90
2018-12-06T23:37:18.010Z,5.67
2018-12-06T23:39:45.513Z,6.97
2018-12-06T23:42:13.201Z,5.83
2018-12-06T23:44:40.759Z,5.83
2018-12-06T23:47:09.185Z,7.77
2018-12-06T23:49:36.724Z,9.83
2018-12-06T23:52:04.497Z,5.60
2018-12-06T23:54:32.001Z,6.53
2018-12-06T23:56:59.665Z,4.43
2018-12-06T23:59:27.238Z,5.67
